Miguel Alves, Brazil
Current Conditions -  °F | °C
As of 8:00 PM on Friday 24 Oct 2014 (Local Time) from SBTE Reporting Station
Clear Clear  
Wind Chill: 90°   Ceiling: Unl
Heat Index: 92°   Visibility: 6mi
Dew Point: 66°   Wind: 3mph
Humidity: 46%   Direction: 250°WSW
Pressure: 29.74"   Gusts: NA
Location:  4.17°S, 42.9°W
Report Text: SBTE 242300Z 25003KT CAVOK 32/19 Q1007
Loading
Personal Weather Stations






























Interactive Weather Map New forecast layout! Learn more

10-Day Weather Forecast

Advertisements
Track Severe Weather on mobile